createdAt,value
2019-05-20T00:00:16.511Z,90.85
2019-05-20T00:02:46.301Z,91.25
2019-05-20T00:05:15.847Z,91.34
2019-05-20T00:07:45.270Z,91.08
2019-05-20T00:10:14.969Z,91.23
2019-05-20T00:12:44.486Z,91.46
2019-05-20T00:15:14.099Z,91.52
2019-05-20T00:17:43.556Z,91.29
2019-05-20T00:20:13.346Z,91.58
2019-05-20T00:22:42.913Z,91.58
2019-05-20T00:25:12.511Z,91.52
2019-05-20T00:27:42.125Z,91.56
2019-05-20T00:30:12.076Z,91.55
2019-05-20T00:32:42.562Z,91.39
2019-05-20T00:35:12.334Z,91.37
2019-05-20T00:37:41.806Z,91.26
2019-05-20T00:40:11.784Z,91.26
2019-05-20T00:42:41.294Z,91.33
2019-05-20T00:45:11.737Z,91.34
2019-05-20T00:47:41.428Z,91.28
2019-05-20T00:50:12.838Z,91.30
2019-05-20T00:52:42.498Z,91.41
2019-05-20T00:55:17.825Z,91.42
2019-05-20T00:57:47.267Z,91.44
2019-05-20T01:00:17.064Z,91.42
2019-05-20T01:02:56.361Z,91.51
2019-05-20T01:05:17.927Z,91.52
2019-05-20T01:07:47.420Z,91.54
2019-05-20T01:10:17.187Z,91.52
2019-05-20T01:12:46.651Z,91.72
2019-05-20T01:15:16.546Z,91.66
2019-05-20T01:17:46.004Z,91.81
2019-05-20T01:20:15.735Z,91.56
2019-05-20T01:22:45.327Z,92.07
2019-05-20T01:25:15.483Z,92.19
2019-05-20T01:27:44.934Z,92.03
2019-05-20T01:30:16.433Z,92.38
2019-05-20T01:32:46.047Z,92.24
2019-05-20T01:35:15.588Z,92.68
2019-05-20T01:37:45.048Z,92.20
2019-05-20T01:40:15.057Z,92.33
2019-05-20T01:42:44.567Z,92.48
2019-05-20T01:45:14.191Z,92.61
2019-05-20T01:47:43.835Z,92.75
2019-05-20T01:50:13.588Z,93.36
2019-05-20T01:52:43.210Z,93.55
2019-05-20T01:55:13.393Z,93.61
2019-05-20T01:57:42.884Z,92.79
2019-05-20T02:00:14.223Z,92.58
2019-05-20T02:02:43.735Z,92.55
2019-05-20T02:05:13.617Z,92.61
2019-05-20T02:07:43.073Z,92.86
2019-05-20T02:10:12.983Z,93.42
2019-05-20T02:12:43.942Z,93.41
2019-05-20T02:15:31.660Z,93.40
2019-05-20T02:18:01.112Z,93.34
2019-05-20T02:20:32.274Z,93.70
2019-05-20T02:23:14.868Z,93.74
2019-05-20T02:25:49.411Z,93.50
2019-05-20T02:28:18.913Z,93.52
2019-05-20T02:30:48.497Z,93.62
2019-05-20T02:33:17.943Z,93.71
2019-05-20T02:35:47.451Z,94.10
2019-05-20T02:38:17.150Z,93.56
2019-05-20T02:40:46.735Z,93.39
2019-05-20T02:43:16.691Z,93.21
2019-05-20T02:45:46.114Z,93.36
2019-05-20T02:48:15.669Z,93.33
2019-05-20T02:50:45.192Z,93.60
2019-05-20T02:53:15.650Z,93.73
2019-05-20T02:55:45.178Z,93.96
2019-05-20T02:58:14.802Z,93.90
2019-05-20T03:00:44.304Z,93.96
2019-05-20T03:03:13.768Z,93.91
2019-05-20T03:05:43.457Z,94.01
2019-05-20T03:08:13.029Z,93.70
2019-05-20T03:10:42.789Z,93.46
2019-05-20T03:13:12.222Z,93.55
2019-05-20T03:15:41.744Z,93.56
2019-05-20T03:18:11.174Z,93.60
2019-05-20T03:20:40.730Z,93.63
2019-05-20T03:23:10.247Z,93.62
2019-05-20T03:25:40.098Z,93.64
2019-05-20T03:28:09.549Z,93.56
2019-05-20T03:30:39.063Z,93.73
2019-05-20T03:33:08.522Z,93.68
2019-05-20T03:35:37.971Z,93.68
2019-05-20T03:38:07.424Z,93.85
2019-05-20T03:40:36.913Z,93.64
2019-05-20T03:43:06.446Z,93.55
2019-05-20T03:45:35.896Z,93.50
2019-05-20T03:48:05.440Z,93.63
2019-05-20T03:50:35.818Z,93.59
2019-05-20T03:53:05.341Z,93.55
2019-05-20T03:55:36.322Z,93.68
2019-05-20T03:58:05.761Z,93.72
2019-05-20T04:00:48.247Z,93.59
2019-05-20T04:03:17.745Z,93.54
2019-05-20T04:05:47.239Z,93.48
2019-05-20T04:08:16.850Z,93.54
2019-05-20T04:10:47.095Z,93.55
2019-05-20T04:13:16.548Z,93.60
2019-05-20T04:15:46.066Z,93.43
2019-05-20T04:18:15.514Z,93.43
2019-05-20T04:20:44.923Z,93.76
2019-05-20T04:23:14.401Z,93.96
2019-05-20T04:25:43.855Z,94.23
2019-05-20T04:28:13.380Z,94.34
2019-05-20T04:30:42.810Z,94.34
2019-05-20T04:33:12.246Z,94.31
2019-05-20T04:35:41.742Z,94.58
2019-05-20T04:38:11.361Z,94.70
2019-05-20T04:40:41.414Z,94.54
2019-05-20T04:43:14.065Z,94.43
2019-05-20T04:45:43.587Z,94.34
2019-05-20T04:48:14.053Z,94.28
2019-05-20T04:50:43.852Z,93.92
2019-05-20T04:53:13.298Z,93.84
2019-05-20T04:55:42.755Z,93.89
2019-05-20T04:58:12.223Z,93.80
2019-05-20T05:00:50.721Z,93.88
2019-05-20T05:03:20.253Z,94.06
2019-05-20T05:05:51.144Z,94.01
2019-05-20T05:08:21.422Z,93.88
2019-05-20T05:10:51.589Z,93.68
2019-05-20T05:13:21.590Z,93.74
2019-05-20T05:15:51.273Z,93.29
2019-05-20T05:18:21.233Z,92.91
2019-05-20T05:20:50.742Z,93.22
2019-05-20T05:23:20.606Z,92.87
2019-05-20T05:25:50.302Z,92.93
2019-05-20T05:28:19.734Z,92.54
2019-05-20T05:30:49.454Z,92.40
2019-05-20T05:33:21.919Z,92.72
2019-05-20T05:35:53.664Z,92.78
2019-05-20T05:38:23.642Z,92.39
2019-05-20T05:40:53.309Z,92.06
2019-05-20T05:43:22.723Z,91.86
2019-05-20T05:45:52.375Z,92.13
2019-05-20T05:48:21.845Z,91.36
2019-05-20T05:50:51.278Z,91.66
2019-05-20T05:53:20.911Z,91.25
2019-05-20T05:55:50.442Z,91.31
2019-05-20T05:58:19.865Z,91.51
2019-05-20T06:00:49.299Z,90.86
2019-05-20T06:03:18.760Z,91.01
2019-05-20T06:05:48.196Z,90.83
2019-05-20T06:08:17.614Z,91.13
2019-05-20T06:10:47.059Z,90.57
2019-05-20T06:13:16.597Z,91.10
2019-05-20T06:15:46.127Z,90.96
2019-05-20T06:18:15.608Z,89.87
2019-05-20T06:20:45.363Z,89.38
2019-05-20T06:23:14.788Z,89.32
2019-05-20T06:25:44.260Z,89.51
2019-05-20T06:28:13.722Z,90.37
2019-05-20T06:30:45.111Z,89.72
2019-05-20T06:33:14.955Z,90.30
2019-05-20T06:35:44.757Z,90.65
2019-05-20T06:38:34.209Z,90.51
2019-05-20T06:41:04.689Z,89.78
2019-05-20T06:43:34.167Z,89.26
2019-05-20T06:46:03.854Z,89.19
2019-05-20T06:48:33.290Z,88.97
2019-05-20T06:51:02.754Z,88.74
2019-05-20T06:53:32.183Z,89.78
2019-05-20T06:56:01.797Z,90.00
2019-05-20T06:58:31.210Z,89.60
2019-05-20T07:01:00.747Z,89.98
2019-05-20T07:03:31.582Z,90.06
2019-05-20T07:06:02.851Z,89.89
2019-05-20T07:08:32.318Z,89.85
2019-05-20T07:11:01.998Z,89.65
2019-05-20T07:13:31.412Z,89.07
2019-05-20T07:16:00.868Z,88.70
2019-05-20T07:18:30.605Z,88.73
2019-05-20T07:21:01.543Z,87.72
2019-05-20T07:23:31.292Z,88.62
2019-05-20T07:26:02.360Z,89.14
2019-05-20T07:28:31.795Z,89.39
2019-05-20T07:31:01.978Z,89.79
2019-05-20T07:33:31.396Z,89.17
2019-05-20T07:36:00.868Z,89.15
2019-05-20T07:38:30.281Z,89.21
2019-05-20T07:40:59.802Z,88.88
2019-05-20T07:43:29.496Z,87.52
2019-05-20T07:46:00.453Z,86.88
2019-05-20T07:48:31.104Z,86.73
2019-05-20T07:51:02.633Z,86.26
2019-05-20T07:53:33.547Z,87.27
2019-05-20T07:56:08.953Z,87.19
2019-05-20T07:58:41.105Z,87.50
2019-05-20T08:01:10.714Z,88.70
2019-05-20T08:03:40.134Z,87.77
2019-05-20T08:06:09.823Z,87.96
2019-05-20T08:08:39.416Z,87.96
2019-05-20T08:11:09.063Z,86.79
2019-05-20T08:13:38.608Z,86.60
2019-05-20T08:16:08.028Z,86.35
2019-05-20T08:18:37.578Z,85.47
2019-05-20T08:21:07.084Z,85.47
2019-05-20T08:23:36.732Z,84.51
2019-05-20T08:26:06.307Z,86.26
2019-05-20T08:28:35.941Z,86.32
2019-05-20T08:31:06.908Z,86.32
2019-05-20T08:33:36.513Z,85.27
2019-05-20T08:36:06.129Z,87.26
2019-05-20T08:38:35.544Z,86.89
2019-05-20T08:41:05.217Z,87.67
2019-05-20T08:43:34.701Z,88.41
2019-05-20T08:46:04.497Z,89.09
2019-05-20T08:48:33.907Z,89.33
2019-05-20T08:51:03.441Z,88.95
2019-05-20T08:53:32.855Z,88.77
2019-05-20T08:56:03.098Z,87.64
2019-05-20T08:58:32.519Z,88.21
2019-05-20T09:01:03.936Z,87.06
2019-05-20T09:03:33.483Z,87.96
2019-05-20T09:06:03.026Z,87.43
2019-05-20T09:08:32.600Z,87.29
2019-05-20T09:11:02.057Z,87.62
2019-05-20T09:13:31.499Z,89.03
2019-05-20T09:16:01.022Z,88.40
2019-05-20T09:18:30.464Z,88.37
2019-05-20T09:21:01.357Z,88.55
2019-05-20T09:23:31.036Z,88.05
2019-05-20T09:26:00.581Z,88.62
2019-05-20T09:28:30.021Z,89.22
2019-05-20T09:31:00.269Z,89.63
2019-05-20T09:33:31.344Z,89.37
2019-05-20T09:36:03.023Z,89.10
2019-05-20T09:38:32.736Z,89.19
2019-05-20T09:41:02.214Z,90.33
2019-05-20T09:43:31.638Z,90.39
2019-05-20T09:46:07.636Z,89.96
2019-05-20T09:48:32.594Z,90.48
2019-05-20T09:51:02.061Z,90.33
2019-05-20T09:53:31.579Z,89.99
2019-05-20T09:56:01.035Z,89.99
2019-05-20T09:58:30.504Z,89.59
2019-05-20T10:00:59.959Z,88.19
2019-05-20T10:03:29.384Z,88.86
2019-05-20T10:05:58.859Z,88.89
2019-05-20T10:08:39.095Z,89.29
2019-05-20T10:11:00.287Z,89.92
2019-05-20T10:13:31.049Z,90.89
2019-05-20T10:16:00.486Z,91.17
2019-05-20T10:18:37.478Z,91.00
2019-05-20T10:21:01.999Z,90.67
2019-05-20T10:23:31.562Z,91.28
2019-05-20T10:26:01.106Z,90.76
2019-05-20T10:28:30.552Z,90.68
2019-05-20T10:31:00.012Z,90.72
2019-05-20T10:33:29.528Z,89.53
2019-05-20T10:35:58.936Z,89.37
2019-05-20T10:38:28.388Z,89.27
2019-05-20T10:40:57.991Z,89.14
2019-05-20T10:43:27.550Z,89.30
2019-05-20T10:45:57.004Z,89.48
2019-05-20T10:48:26.480Z,89.20
2019-05-20T10:50:55.922Z,87.67
2019-05-20T10:53:28.323Z,87.18
2019-05-20T10:55:56.951Z,87.51
2019-05-20T10:58:26.663Z,88.07
2019-05-20T11:01:02.647Z,86.26
2019-05-20T11:03:27.311Z,87.93
2019-05-20T11:05:56.751Z,88.29
2019-05-20T11:08:26.288Z,87.89
2019-05-20T11:10:55.901Z,87.97
2019-05-20T11:13:25.310Z,87.57
2019-05-20T11:15:57.829Z,87.35
2019-05-20T11:18:27.385Z,86.96
2019-05-20T11:20:56.848Z,86.74
2019-05-20T11:23:26.290Z,86.84
2019-05-20T11:25:55.718Z,85.91
2019-05-20T11:28:25.167Z,85.32
2019-05-20T11:30:54.615Z,84.08
2019-05-20T11:33:24.064Z,85.28
2019-05-20T11:35:53.520Z,84.00
2019-05-20T11:38:22.960Z,83.07
2019-05-20T11:40:52.403Z,83.41
2019-05-20T11:43:23.611Z,82.07
2019-05-20T11:45:53.055Z,83.23
2019-05-20T11:48:22.643Z,81.23
2019-05-20T11:50:52.316Z,81.23
2019-05-20T11:53:21.987Z,80.67
2019-05-20T11:55:51.607Z,83.37
2019-05-20T11:58:22.918Z,83.37
2019-05-20T12:00:52.622Z,81.24
2019-05-20T12:03:22.356Z,81.24
2019-05-20T12:05:51.826Z,79.35
2019-05-20T12:08:21.448Z,81.18
2019-05-20T12:10:50.886Z,80.30
2019-05-20T12:13:20.411Z,79.90
2019-05-20T12:15:50.009Z,78.41
2019-05-20T12:18:19.628Z,76.50
2019-05-20T12:20:49.667Z,76.32
2019-05-20T12:23:19.205Z,76.81
2019-05-20T12:25:48.763Z,76.82
2019-05-20T12:28:18.213Z,77.65
2019-05-20T12:30:47.689Z,77.43
2019-05-20T12:33:19.331Z,75.23
2019-05-20T12:35:48.303Z,77.73
2019-05-20T12:38:17.743Z,76.78
2019-05-20T12:40:47.202Z,77.58
2019-05-20T12:43:16.655Z,78.23
2019-05-20T12:45:46.133Z,79.07
2019-05-20T12:48:17.172Z,78.51
2019-05-20T12:50:46.613Z,78.40
2019-05-20T12:53:16.121Z,78.72
2019-05-20T12:55:45.573Z,75.66
2019-05-20T12:58:16.043Z,75.71
2019-05-20T13:00:45.606Z,77.53
2019-05-20T13:03:16.559Z,77.56
2019-05-20T13:05:46.282Z,74.49
2019-05-20T13:08:15.702Z,75.51
2019-05-20T13:10:45.184Z,77.39
2019-05-20T13:13:14.763Z,77.39
2019-05-20T13:15:44.207Z,79.06
2019-05-20T13:18:13.622Z,79.33
2019-05-20T13:20:43.686Z,81.34
2019-05-20T13:23:14.850Z,81.01
2019-05-20T13:25:44.394Z,79.16
2019-05-20T13:28:13.970Z,79.54
2019-05-20T13:30:43.406Z,80.21
2019-05-20T13:33:12.888Z,80.12
2019-05-20T13:35:42.350Z,79.14
2019-05-20T13:38:11.731Z,81.26
2019-05-20T13:40:46.415Z,80.29
2019-05-20T13:43:12.359Z,79.00
2019-05-20T13:45:41.801Z,78.21
2019-05-20T13:48:11.250Z,78.85
2019-05-20T13:50:41.213Z,77.32
2019-05-20T13:53:10.697Z,78.55
2019-05-20T13:55:40.147Z,80.11
2019-05-20T13:58:09.594Z,80.11
2019-05-20T14:00:39.106Z,80.53
2019-05-20T14:03:08.557Z,80.53
2019-05-20T14:05:38.754Z,80.36
2019-05-20T14:08:08.285Z,80.36
2019-05-20T14:10:37.719Z,78.95
2019-05-20T14:13:07.224Z,80.11
2019-05-20T14:15:36.677Z,78.42
2019-05-20T14:18:06.144Z,79.66
2019-05-20T14:20:35.585Z,80.26
2019-05-20T14:23:04.996Z,80.64
2019-05-20T14:25:34.678Z,80.10
2019-05-20T14:28:04.167Z,81.17
2019-05-20T14:30:33.679Z,79.92
2019-05-20T14:33:03.209Z,79.07
2019-05-20T14:35:32.927Z,79.07
2019-05-20T14:38:02.312Z,78.33
2019-05-20T14:40:31.773Z,79.81
2019-05-20T14:43:01.212Z,80.42
2019-05-20T14:45:30.679Z,79.97
2019-05-20T14:48:00.255Z,80.68
2019-05-20T14:50:29.697Z,80.88
2019-05-20T14:52:59.322Z,81.34
2019-05-20T14:55:28.923Z,82.24
2019-05-20T14:57:58.324Z,82.88
2019-05-20T15:00:27.769Z,82.25
2019-05-20T15:02:57.917Z,83.43
2019-05-20T15:05:27.461Z,82.19
2019-05-20T15:07:56.927Z,82.54
2019-05-20T15:10:27.744Z,82.17
2019-05-20T15:12:57.204Z,80.70
2019-05-20T15:15:28.322Z,80.64
2019-05-20T15:17:57.846Z,78.51
2019-05-20T15:20:27.256Z,79.94
2019-05-20T15:22:56.775Z,80.37
2019-05-20T15:25:26.320Z,81.11
2019-05-20T15:27:56.065Z,81.89
2019-05-20T15:30:25.556Z,82.45
2019-05-20T15:32:55.161Z,81.33
2019-05-20T15:35:26.200Z,81.73
2019-05-20T15:37:55.647Z,80.12
2019-05-20T15:40:25.236Z,80.29
2019-05-20T15:42:54.767Z,81.68
2019-05-20T15:45:24.178Z,82.12
2019-05-20T15:47:53.823Z,82.56
2019-05-20T15:50:23.392Z,82.11
2019-05-20T15:52:53.428Z,82.32
2019-05-20T15:55:22.838Z,82.12
2019-05-20T15:57:52.267Z,82.43
2019-05-20T16:00:21.844Z,82.01
2019-05-20T16:02:51.441Z,83.03
2019-05-20T16:05:20.854Z,81.67
2019-05-20T16:07:50.445Z,82.29
2019-05-20T16:10:19.862Z,83.11
2019-05-20T16:12:49.322Z,83.77
2019-05-20T16:15:18.858Z,81.95
2019-05-20T16:17:48.839Z,81.74
2019-05-20T16:20:19.336Z,83.92
2019-05-20T16:22:48.986Z,84.02
2019-05-20T16:25:20.028Z,84.12
2019-05-20T16:27:49.474Z,84.70
2019-05-20T16:30:19.210Z,83.98
2019-05-20T16:32:48.709Z,84.11
2019-05-20T16:35:18.128Z,84.44
2019-05-20T16:37:47.573Z,83.76
2019-05-20T16:40:17.270Z,83.55
2019-05-20T16:42:46.714Z,84.31
2019-05-20T16:45:16.472Z,84.24
2019-05-20T16:47:45.914Z,84.23
2019-05-20T16:50:16.479Z,84.78
2019-05-20T16:52:45.981Z,84.49
2019-05-20T16:55:15.898Z,85.20
2019-05-20T16:57:45.352Z,84.62
2019-05-20T17:00:30.628Z,84.24
2019-05-20T17:02:48.227Z,83.85
2019-05-20T17:05:17.767Z,83.78
2019-05-20T17:07:47.235Z,84.35
2019-05-20T17:10:17.775Z,83.49
2019-05-20T17:12:47.224Z,83.07
2019-05-20T17:15:18.249Z,83.92
2019-05-20T17:17:47.682Z,82.21
2019-05-20T17:20:17.375Z,82.39
2019-05-20T17:22:48.369Z,83.29
2019-05-20T17:25:17.873Z,84.23
2019-05-20T17:27:48.273Z,84.25
2019-05-20T17:30:17.942Z,83.94
2019-05-20T17:32:47.518Z,84.02
2019-05-20T17:35:18.733Z,84.31
2019-05-20T17:37:48.207Z,84.36
2019-05-20T17:40:19.063Z,85.65
2019-05-20T17:42:48.522Z,86.15
2019-05-20T17:45:18.424Z,86.20
2019-05-20T17:47:47.857Z,86.02
2019-05-20T17:50:18.943Z,85.35
2019-05-20T17:52:48.355Z,85.84
2019-05-20T17:55:19.647Z,86.33
2019-05-20T17:57:49.426Z,86.69
2019-05-20T18:00:20.764Z,86.53
2019-05-20T18:02:50.270Z,87.02
2019-05-20T18:05:19.716Z,86.72
2019-05-20T18:07:49.332Z,86.26
2019-05-20T18:10:20.573Z,86.58
2019-05-20T18:12:49.978Z,87.13
2019-05-20T18:15:19.772Z,86.74
2019-05-20T18:17:49.203Z,86.82
2019-05-20T18:20:18.878Z,87.03
2019-05-20T18:22:48.478Z,86.78
2019-05-20T18:25:17.945Z,86.69
2019-05-20T18:27:47.431Z,86.54
2019-05-20T18:30:17.266Z,87.10
2019-05-20T18:32:46.681Z,86.79
2019-05-20T18:35:17.841Z,86.61
2019-05-20T18:37:47.281Z,86.94
2019-05-20T18:40:17.079Z,87.52
2019-05-20T18:42:46.493Z,87.53
2019-05-20T18:45:16.080Z,87.46
2019-05-20T18:47:45.512Z,87.93
2019-05-20T18:50:15.672Z,88.05
2019-05-20T18:52:46.775Z,87.99
2019-05-20T18:55:16.319Z,88.25
2019-05-20T18:57:45.783Z,88.25
2019-05-20T19:00:17.039Z,88.48
2019-05-20T19:02:46.471Z,88.46
2019-05-20T19:05:17.614Z,88.26
2019-05-20T19:07:48.965Z,87.79
2019-05-20T19:10:19.381Z,88.53
2019-05-20T19:12:49.564Z,88.62
2019-05-20T19:15:19.534Z,88.35
2019-05-20T19:17:49.333Z,88.81
2019-05-20T19:20:18.874Z,89.01
2019-05-20T19:22:48.329Z,89.08
2019-05-20T19:25:17.793Z,89.40
2019-05-20T19:27:47.329Z,89.37
2019-05-20T19:30:16.884Z,88.95
2019-05-20T19:32:46.333Z,88.86
2019-05-20T19:35:15.870Z,88.97
2019-05-20T19:37:45.297Z,88.91
2019-05-20T19:40:16.854Z,89.04
2019-05-20T19:42:46.272Z,89.05
2019-05-20T19:45:16.026Z,89.51
2019-05-20T19:47:45.439Z,89.17
2019-05-20T19:50:15.188Z,89.87
2019-05-20T19:52:47.851Z,90.10
2019-05-20T19:55:18.940Z,90.71
2019-05-20T19:57:48.600Z,91.02
2019-05-20T20:00:20.046Z,91.37
2019-05-20T20:02:49.480Z,91.42
2019-05-20T20:05:18.964Z,91.50
2019-05-20T20:07:48.488Z,91.62
2019-05-20T20:10:18.042Z,91.73
2019-05-20T20:12:47.519Z,91.82
2019-05-20T20:15:19.685Z,91.94
2019-05-20T20:17:49.293Z,91.68
2019-05-20T20:20:18.774Z,91.89
2019-05-20T20:22:48.285Z,91.78
2019-05-20T20:25:17.786Z,92.11
2019-05-20T20:27:47.306Z,91.67
2019-05-20T20:30:17.090Z,91.76
2019-05-20T20:32:46.587Z,91.56
2019-05-20T20:35:17.824Z,91.76
2019-05-20T20:37:47.305Z,91.73
2019-05-20T20:40:16.924Z,91.56
2019-05-20T20:42:46.356Z,91.80
2019-05-20T20:45:15.836Z,92.00
2019-05-20T20:47:48.130Z,91.73
2019-05-20T20:50:17.631Z,91.87
2019-05-20T20:52:47.077Z,91.96
2019-05-20T20:55:16.585Z,91.93
2019-05-20T20:57:46.100Z,91.92
2019-05-20T21:00:16.350Z,91.23
2019-05-20T21:02:53.201Z,90.89
2019-05-20T21:05:18.715Z,90.84
2019-05-20T21:07:51.652Z,89.95
2019-05-20T21:10:19.445Z,90.32
2019-05-20T21:12:48.885Z,90.62
2019-05-20T21:15:18.653Z,91.09
2019-05-20T21:17:48.285Z,90.92
2019-05-20T21:20:17.958Z,91.07
2019-05-20T21:22:47.455Z,90.91
2019-05-20T21:25:17.036Z,91.01
2019-05-20T21:27:46.505Z,91.31
2019-05-20T21:30:16.068Z,91.09
2019-05-20T21:32:45.529Z,90.77
2019-05-20T21:35:14.971Z,90.99
2019-05-20T21:37:44.446Z,91.00
2019-05-20T21:40:13.864Z,90.96
2019-05-20T21:42:44.865Z,90.94
2019-05-20T21:45:14.376Z,91.18
2019-05-20T21:47:44.880Z,90.90
2019-05-20T21:50:14.640Z,91.06
2019-05-20T21:52:44.266Z,90.76
2019-05-20T21:55:14.046Z,90.72
2019-05-20T21:57:45.265Z,90.65
2019-05-20T22:00:22.807Z,90.53
2019-05-20T22:02:52.388Z,90.61
2019-05-20T22:05:22.042Z,90.90
2019-05-20T22:07:51.478Z,90.70
2019-05-20T22:10:21.002Z,90.58
2019-05-20T22:12:52.053Z,90.61
2019-05-20T22:15:21.500Z,90.97
2019-05-20T22:17:52.559Z,91.24
2019-05-20T22:20:22.010Z,91.83
2019-05-20T22:22:53.086Z,92.34
2019-05-20T22:25:22.624Z,92.18
2019-05-20T22:27:52.018Z,92.06
2019-05-20T22:30:23.045Z,91.59
2019-05-20T22:32:52.467Z,91.63
2019-05-20T22:35:22.096Z,91.72
2019-05-20T22:37:51.501Z,91.43
2019-05-20T22:40:20.949Z,91.33
2019-05-20T22:42:50.353Z,91.35
2019-05-20T22:45:19.786Z,91.18
2019-05-20T22:47:49.443Z,91.21
2019-05-20T22:50:18.918Z,91.12
2019-05-20T22:52:48.338Z,91.42
2019-05-20T22:55:17.927Z,91.52
2019-05-20T22:57:47.405Z,91.38
2019-05-20T23:00:17.172Z,91.45
2019-05-20T23:02:46.707Z,91.43
2019-05-20T23:05:16.222Z,91.53
2019-05-20T23:07:45.705Z,91.67
2019-05-20T23:10:15.854Z,91.58
2019-05-20T23:12:45.271Z,91.67
2019-05-20T23:15:14.851Z,91.73
2019-05-20T23:17:44.299Z,91.72
2019-05-20T23:20:14.146Z,91.56
2019-05-20T23:22:43.678Z,91.66
2019-05-20T23:25:13.866Z,91.67
2019-05-20T23:27:43.456Z,91.53
2019-05-20T23:30:13.507Z,91.71
2019-05-20T23:32:42.967Z,91.61
2019-05-20T23:35:12.607Z,91.37
2019-05-20T23:37:42.240Z,90.79
2019-05-20T23:40:11.839Z,91.00
2019-05-20T23:42:41.295Z,91.02
2019-05-20T23:45:11.144Z,91.62
2019-05-20T23:47:40.653Z,91.78
2019-05-20T23:50:10.709Z,91.85
2019-05-20T23:52:40.286Z,92.22
2019-05-20T23:55:11.137Z,92.14
2019-05-20T23:57:40.580Z,92.33
